Coolspring, IN

12:52 AM CDT on September 24, 2014 (GMT -0500)
Coolspring Township on 400N | Change Station
CLOSE
Current Station
Personal Weather Station
Location: Michigan City, IN
Elevation: 643 ft
Nearby Weather Stations

Elev 643 ft 41.67 °N, 86.87 °W | Updated 11 seconds ago

Clear
Clear
52.0 °F
Feels Like 52.0 °F
N
0.0
Wind Variable Wind from NNE
Gusts 0.0 mph

Today
High -- | Low -- °F
--% Chance of Precip.
Yesterday
High -- | Low -- °F
Precip. -- in
6:36 AM 6:41 PM
Waning Crescent, 0% visible
Pressure 30.34 in
Visibility 10.0 miles
Clouds Clear
Dew Point 51 °F
Humidity 97%
Rainfall 0.00 in
Snow Depth Not available.
UV 0 out of 12
Pollen 4.80 out of 12
Air Quality Not available.
Flu Activity Not available.
METAR KMGC 240535Z AUTO 00000KT 10SM CLR 09/09 A3034 RMK AO2

More Conditions Fewer Conditions

Pressure 30.34 in
Visibility 10.0 miles
Clouds Clear
Dew Point 51 °F
Humidity 97%
Rainfall 0.00 in
Snow Depth Not available.
UV 0 out of 12
Pollen 4.80 out of 12
Air Quality Not available.
Flu Activity Not available.
METAR KMGC 240535Z AUTO 00000KT 10SM CLR 09/09 A3034 RMK AO2

More Conditions Fewer Conditions

10-Day Weather Forecast

Almanac

Astronomy

Sep. 24, 2014 Rise Set
Actual Time 6:36 AM CDT 6:41 PM CDT
Civil Twilight 6:09 AM CDT 7:08 PM CDT
Nautical Twilight 5:36 AM CDT 7:41 PM CDT
Astronomical Twilight 5:03 AM CDT 8:14 PM CDT
Moon 6:57 AM CDT 6:50 PM CDT
Length of Visible Light 12h 59m
Length of Day
12h 04m
Tomorrow will be 2m 46s shorter.
Waning Crescent, 0% of the Moon is Illuminated
Today
Waning Crescent
Sep 24
New
Oct 1
First Quarter
Oct 8
Full
Oct 15
Last Quarter

Today's Extremes

State Highs State Lows

Community

WunderPhotos

Upload Photos

1,755,891 photos uploaded!

WunderBlogs® & News

Nearby

Snow Depth

Station Depth Elevation
No new snow has been reported.

Earthquake Activity

City Distance Mag. Time & Date
No recent earthquake activity has been reported nearby.
Minimum magnitude displayed is 2.5.

Coastal Water Temperatures

Place Temperature
No Stations Reporting

Nearby Weather Stations